createdAt,value
2018-10-21T00:00:42.683Z,12.09
2018-10-21T00:03:09.043Z,12.06
2018-10-21T00:05:35.307Z,12.03
2018-10-21T00:08:01.610Z,12.03
2018-10-21T00:10:27.908Z,12.02
2018-10-21T00:12:54.237Z,12.08
2018-10-21T00:15:20.618Z,12.26
2018-10-21T00:17:46.890Z,12.41
2018-10-21T00:20:13.194Z,12.50
2018-10-21T00:22:39.492Z,12.34
2018-10-21T00:25:05.787Z,12.21
2018-10-21T00:27:32.093Z,12.19
2018-10-21T00:29:58.396Z,12.25
2018-10-21T00:32:24.705Z,12.25
2018-10-21T00:34:51.003Z,12.18
2018-10-21T00:37:17.325Z,12.11
2018-10-21T00:39:43.693Z,12.22
2018-10-21T00:42:10.014Z,12.23
2018-10-21T00:44:36.315Z,12.11
2018-10-21T00:47:02.682Z,12.07
2018-10-21T00:49:29.005Z,12.08
2018-10-21T00:51:55.312Z,12.09
2018-10-21T00:54:21.637Z,12.24
2018-10-21T00:56:47.970Z,12.32
2018-10-21T00:59:14.295Z,12.42
2018-10-21T01:01:40.624Z,12.36
2018-10-21T01:04:07.005Z,12.31
2018-10-21T01:06:33.248Z,12.33
2018-10-21T01:08:59.595Z,12.27
2018-10-21T01:11:25.893Z,12.39
2018-10-21T01:13:52.196Z,12.51
2018-10-21T01:16:18.517Z,12.55
2018-10-21T01:18:44.834Z,12.64
2018-10-21T01:21:11.259Z,12.54
2018-10-21T01:23:37.499Z,12.50
2018-10-21T01:26:03.812Z,12.51
2018-10-21T01:28:30.146Z,12.46
2018-10-21T01:30:56.445Z,12.34
2018-10-21T01:33:22.745Z,12.32
2018-10-21T01:35:49.052Z,12.29
2018-10-21T01:38:15.423Z,12.40
2018-10-21T01:40:41.672Z,12.24
2018-10-21T01:43:07.978Z,12.41
2018-10-21T01:45:34.303Z,12.46
2018-10-21T01:48:00.610Z,12.47
2018-10-21T01:50:26.975Z,12.07
2018-10-21T01:52:53.347Z,12.04
2018-10-21T01:55:19.672Z,12.23
2018-10-21T01:57:46.038Z,12.27
2018-10-21T02:00:12.362Z,12.42
2018-10-21T02:02:38.663Z,12.44
2018-10-21T02:05:04.965Z,12.40
2018-10-21T02:07:31.289Z,12.27
2018-10-21T02:09:57.592Z,11.82
2018-10-21T02:12:23.891Z,11.99
2018-10-21T02:14:50.201Z,12.18
2018-10-21T02:17:16.524Z,11.83
2018-10-21T02:19:42.826Z,11.69
2018-10-21T02:22:09.123Z,11.54
2018-10-21T02:24:35.423Z,11.53
2018-10-21T02:27:01.779Z,11.30
2018-10-21T02:29:28.050Z,11.23
2018-10-21T02:31:54.358Z,10.98
2018-10-21T02:34:20.685Z,10.82
2018-10-21T02:36:47.011Z,10.73
2018-10-21T02:39:13.382Z,10.66
2018-10-21T02:41:39.635Z,10.63
2018-10-21T02:44:05.971Z,10.51
2018-10-21T02:46:32.266Z,10.30
2018-10-21T02:48:58.599Z,10.13
2018-10-21T02:51:24.902Z,10.05
2018-10-21T02:53:51.251Z,10.19
2018-10-21T02:56:17.573Z,10.37
2018-10-21T02:58:43.881Z,10.39
2018-10-21T03:01:10.213Z,10.33
2018-10-21T03:03:36.548Z,10.04
2018-10-21T03:06:02.873Z,9.84
2018-10-21T03:08:29.197Z,9.66
2018-10-21T03:10:55.550Z,9.64
2018-10-21T03:13:21.896Z,9.43
2018-10-21T03:15:48.221Z,9.48
2018-10-21T03:18:14.542Z,9.61
2018-10-21T03:20:40.816Z,9.83
2018-10-21T03:23:07.116Z,9.92
2018-10-21T03:25:33.415Z,9.87
2018-10-21T03:27:59.710Z,9.55
2018-10-21T03:30:26.007Z,9.59
2018-10-21T03:32:52.310Z,9.72
2018-10-21T03:35:18.611Z,9.69
2018-10-21T03:37:44.980Z,9.71
2018-10-21T03:40:11.366Z,9.68
2018-10-21T03:42:37.682Z,9.55
2018-10-21T03:45:04.006Z,9.65
2018-10-21T03:47:30.303Z,9.72
2018-10-21T03:49:56.633Z,9.60
2018-10-21T03:52:22.963Z,9.59
2018-10-21T03:54:49.263Z,9.67
2018-10-21T03:57:15.643Z,9.85
2018-10-21T03:59:41.944Z,10.08
2018-10-21T04:02:08.275Z,10.00
2018-10-21T04:04:34.571Z,9.82
2018-10-21T04:07:00.871Z,9.78
2018-10-21T04:09:27.169Z,9.88
2018-10-21T04:11:53.516Z,9.99
2018-10-21T04:14:19.851Z,9.81
2018-10-21T04:16:46.194Z,10.11
2018-10-21T04:19:12.567Z,10.21
2018-10-21T04:21:38.891Z,10.32
2018-10-21T04:24:05.191Z,10.37
2018-10-21T04:26:31.517Z,10.30
2018-10-21T04:28:57.885Z,9.94
2018-10-21T04:31:24.184Z,9.66
2018-10-21T04:33:50.527Z,9.53
2018-10-21T04:36:16.844Z,9.54
2018-10-21T04:38:43.220Z,9.57
2018-10-21T04:41:09.539Z,9.70
2018-10-21T04:43:35.861Z,9.73
2018-10-21T04:46:02.170Z,9.69
2018-10-21T04:48:28.461Z,9.67
2018-10-21T04:50:54.758Z,9.64
2018-10-21T04:53:21.056Z,9.59
2018-10-21T04:55:47.355Z,9.57
2018-10-21T04:58:13.746Z,9.52
2018-10-21T05:00:40.018Z,9.45
2018-10-21T05:03:06.301Z,9.42
2018-10-21T05:05:32.627Z,9.34
2018-10-21T05:07:58.953Z,9.27
2018-10-21T05:10:25.254Z,9.14
2018-10-21T05:12:51.603Z,9.21
2018-10-21T05:15:17.993Z,9.28
2018-10-21T05:17:44.246Z,9.23
2018-10-21T05:20:10.570Z,9.20
2018-10-21T05:22:36.894Z,9.10
2018-10-21T05:25:03.219Z,9.09
2018-10-21T05:27:29.519Z,9.10
2018-10-21T05:29:55.848Z,9.11
2018-10-21T05:32:22.168Z,9.10
2018-10-21T05:34:48.465Z,9.13
2018-10-21T05:37:14.789Z,9.21
2018-10-21T05:39:41.117Z,9.35
2018-10-21T05:42:07.436Z,9.39
2018-10-21T05:44:33.738Z,9.50
2018-10-21T05:47:00.104Z,9.57
2018-10-21T05:49:26.425Z,9.57
2018-10-21T05:51:52.797Z,9.57
2018-10-21T05:54:19.090Z,9.75
2018-10-21T05:56:45.392Z,9.72
2018-10-21T05:59:11.730Z,9.63
2018-10-21T06:01:38.057Z,9.60
2018-10-21T06:04:04.379Z,9.64
2018-10-21T06:06:30.660Z,9.75
2018-10-21T06:08:56.985Z,9.71
2018-10-21T06:11:23.350Z,9.69
2018-10-21T06:13:49.668Z,9.73
2018-10-21T06:16:16.023Z,9.82
2018-10-21T06:18:42.271Z,9.96
2018-10-21T06:21:08.573Z,10.10
2018-10-21T06:23:34.935Z,10.28
2018-10-21T06:26:01.205Z,10.42
2018-10-21T06:28:27.507Z,10.54
2018-10-21T06:30:53.803Z,10.66
2018-10-21T06:33:20.151Z,10.74
2018-10-21T06:35:46.480Z,10.76
2018-10-21T06:38:12.824Z,10.75
2018-10-21T06:40:39.154Z,10.75
2018-10-21T06:43:05.504Z,10.89
2018-10-21T06:45:31.891Z,11.01
2018-10-21T06:47:58.179Z,11.14
2018-10-21T06:50:24.475Z,11.24
2018-10-21T06:52:50.802Z,11.40
2018-10-21T06:55:17.134Z,11.45
2018-10-21T06:57:43.544Z,11.51
2018-10-21T07:00:09.783Z,11.55
2018-10-21T07:02:36.159Z,11.61
2018-10-21T07:05:02.483Z,11.59
2018-10-21T07:07:28.860Z,11.59
2018-10-21T07:09:55.213Z,11.63
2018-10-21T07:12:21.526Z,11.63
2018-10-21T07:14:47.845Z,11.66
2018-10-21T07:17:14.301Z,11.60
2018-10-21T07:19:40.595Z,11.63
2018-10-21T07:22:06.934Z,11.70
2018-10-21T07:24:33.230Z,11.77
2018-10-21T07:26:59.524Z,11.85
2018-10-21T07:29:25.860Z,12.00
2018-10-21T07:31:52.191Z,12.16
2018-10-21T07:34:18.563Z,12.29
2018-10-21T07:36:44.822Z,12.49
2018-10-21T07:39:11.120Z,12.69
2018-10-21T07:41:37.423Z,12.80
2018-10-21T07:44:03.732Z,12.85
2018-10-21T07:46:30.094Z,13.17
2018-10-21T07:48:56.445Z,13.52
2018-10-21T07:51:22.725Z,13.77
2018-10-21T07:53:49.625Z,13.73
2018-10-21T07:56:15.929Z,13.73
2018-10-21T07:58:42.246Z,13.74
2018-10-21T08:01:08.582Z,13.57
2018-10-21T08:03:34.875Z,13.25
2018-10-21T08:06:01.225Z,13.16
2018-10-21T08:08:27.608Z,13.42
2018-10-21T08:10:53.884Z,13.50
2018-10-21T08:13:20.210Z,13.57
2018-10-21T08:15:46.507Z,13.85
2018-10-21T08:18:12.833Z,13.96
2018-10-21T08:20:39.166Z,14.18
2018-10-21T08:23:05.507Z,14.20
2018-10-21T08:25:31.830Z,14.18
2018-10-21T08:27:58.204Z,14.23
2018-10-21T08:30:24.562Z,14.39
2018-10-21T08:32:50.880Z,14.33
2018-10-21T08:35:17.197Z,14.67
2018-10-21T08:37:43.518Z,14.80
2018-10-21T08:40:09.953Z,14.89
2018-10-21T08:42:36.215Z,14.76
2018-10-21T08:45:02.556Z,14.73
2018-10-21T08:47:28.851Z,14.68
2018-10-21T08:49:55.188Z,14.89
2018-10-21T08:52:21.490Z,14.92
2018-10-21T08:54:47.807Z,14.78
2018-10-21T08:57:14.124Z,14.80
2018-10-21T08:59:40.463Z,14.94
2018-10-21T09:02:06.870Z,15.08
2018-10-21T09:04:33.131Z,15.14
2018-10-21T09:06:59.491Z,15.35
2018-10-21T09:09:25.799Z,15.48
2018-10-21T09:11:52.181Z,15.58
2018-10-21T09:14:18.513Z,15.60
2018-10-21T09:16:44.881Z,15.88
2018-10-21T09:19:11.165Z,15.80
2018-10-21T09:21:37.479Z,15.88
2018-10-21T09:24:03.847Z,15.87
2018-10-21T09:26:30.219Z,15.84
2018-10-21T09:28:56.534Z,16.15
2018-10-21T09:31:22.870Z,16.19
2018-10-21T09:33:49.188Z,16.52
2018-10-21T09:36:15.519Z,16.76
2018-10-21T09:38:41.847Z,16.87
2018-10-21T09:41:08.168Z,17.00
2018-10-21T09:43:34.484Z,16.77
2018-10-21T09:46:00.858Z,16.72
2018-10-21T09:48:27.162Z,16.94
2018-10-21T09:50:53.464Z,17.12
2018-10-21T09:53:19.790Z,17.52
2018-10-21T09:55:46.108Z,17.83
2018-10-21T09:58:12.518Z,18.49
2018-10-21T10:00:38.825Z,19.13
2018-10-21T10:03:05.198Z,19.40
2018-10-21T10:05:31.572Z,19.13
2018-10-21T10:07:57.883Z,19.34
2018-10-21T10:10:24.198Z,19.40
2018-10-21T10:12:50.577Z,19.28
2018-10-21T10:15:16.889Z,19.26
2018-10-21T10:17:43.290Z,18.84
2018-10-21T10:20:09.545Z,18.92
2018-10-21T10:22:35.872Z,19.50
2018-10-21T10:25:02.198Z,19.79
2018-10-21T10:27:28.517Z,19.94
2018-10-21T10:29:54.849Z,20.11
2018-10-21T10:32:21.166Z,19.88
2018-10-21T10:34:47.571Z,19.96
2018-10-21T10:37:13.948Z,19.59
2018-10-21T10:39:40.188Z,18.85
2018-10-21T10:42:06.607Z,18.61
2018-10-21T10:44:32.833Z,18.50
2018-10-21T10:46:59.149Z,18.37
2018-10-21T10:49:25.483Z,18.50
2018-10-21T10:51:51.815Z,18.74
2018-10-21T10:54:18.141Z,19.57
2018-10-21T10:56:44.489Z,19.72
2018-10-21T10:59:10.827Z,19.17
2018-10-21T11:01:37.155Z,18.64
2018-10-21T11:04:03.498Z,18.30
2018-10-21T11:06:29.820Z,17.86
2018-10-21T11:08:56.133Z,17.64
2018-10-21T11:11:22.475Z,17.49
2018-10-21T11:13:48.822Z,17.33
2018-10-21T11:16:15.207Z,17.26
2018-10-21T11:18:41.471Z,17.08
2018-10-21T11:21:07.795Z,16.74
2018-10-21T11:23:34.172Z,16.56
2018-10-21T11:26:00.503Z,16.55
2018-10-21T11:28:26.833Z,16.63
2018-10-21T11:30:53.165Z,16.22
2018-10-21T11:33:19.492Z,15.95
2018-10-21T11:35:45.795Z,15.73
2018-10-21T11:38:12.137Z,15.59
2018-10-21T11:40:38.503Z,15.59
2018-10-21T11:43:04.813Z,15.44
2018-10-21T11:45:31.197Z,15.34
2018-10-21T11:47:57.549Z,15.48
2018-10-21T11:50:23.847Z,15.37
2018-10-21T11:52:50.171Z,15.34
2018-10-21T11:55:16.558Z,15.32
2018-10-21T11:57:42.835Z,15.21
2018-10-21T12:00:09.193Z,15.09
2018-10-21T12:02:35.510Z,14.94
2018-10-21T12:05:01.838Z,14.76
2018-10-21T12:07:28.155Z,14.72
2018-10-21T12:09:54.509Z,14.62
2018-10-21T12:12:20.814Z,14.55
2018-10-21T12:14:47.134Z,14.59
2018-10-21T12:17:13.515Z,14.66
2018-10-21T12:19:39.878Z,14.56
2018-10-21T12:22:06.196Z,14.48
2018-10-21T12:24:32.506Z,14.42
2018-10-21T12:26:58.835Z,14.35
2018-10-21T12:29:25.169Z,14.29
2018-10-21T12:31:51.497Z,14.10
2018-10-21T12:34:17.906Z,14.08
2018-10-21T12:36:44.151Z,14.03
2018-10-21T12:39:10.522Z,13.94
2018-10-21T12:41:36.841Z,13.92
2018-10-21T12:44:03.201Z,13.96
2018-10-21T12:46:29.524Z,13.97
2018-10-21T12:48:55.877Z,13.96
2018-10-21T12:51:22.256Z,13.94
2018-10-21T12:53:48.579Z,13.89
2018-10-21T12:56:14.953Z,13.87
2018-10-21T12:58:41.297Z,13.82
2018-10-21T13:01:07.750Z,13.79
2018-10-21T13:03:33.946Z,13.81
2018-10-21T13:06:00.302Z,13.77
2018-10-21T13:08:26.646Z,13.78
2018-10-21T13:10:52.976Z,13.81
2018-10-21T13:13:19.330Z,13.81
2018-10-21T13:15:45.641Z,13.79
2018-10-21T13:18:11.963Z,13.82
2018-10-21T13:20:38.281Z,13.76
2018-10-21T13:23:04.612Z,13.70
2018-10-21T13:25:30.944Z,13.67
2018-10-21T13:27:57.280Z,13.62
2018-10-21T13:30:23.599Z,13.55
2018-10-21T13:32:49.922Z,13.50
2018-10-21T13:35:16.249Z,13.48
2018-10-21T13:37:42.569Z,13.47
2018-10-21T13:40:08.983Z,13.48
2018-10-21T13:42:35.256Z,13.43
2018-10-21T13:45:01.556Z,13.45
2018-10-21T13:47:27.882Z,13.47
2018-10-21T13:49:54.205Z,13.46
2018-10-21T13:52:20.528Z,13.40
2018-10-21T13:54:46.853Z,13.41
2018-10-21T13:57:13.171Z,13.35
2018-10-21T13:59:39.491Z,13.24
2018-10-21T14:02:05.818Z,13.19
2018-10-21T14:04:32.156Z,13.11
2018-10-21T14:06:58.537Z,13.05
2018-10-21T14:09:24.803Z,13.13
2018-10-21T14:11:51.132Z,13.14
2018-10-21T14:14:17.463Z,13.04
2018-10-21T14:16:43.870Z,12.97
2018-10-21T14:19:10.107Z,12.96
2018-10-21T14:21:36.435Z,12.94
2018-10-21T14:24:02.794Z,12.87
2018-10-21T14:26:29.094Z,12.80
2018-10-21T14:28:55.410Z,12.77
2018-10-21T14:31:21.732Z,12.73
2018-10-21T14:33:48.046Z,12.71
2018-10-21T14:36:14.425Z,12.63
2018-10-21T14:38:40.752Z,12.53
2018-10-21T14:41:07.077Z,12.43
2018-10-21T14:43:33.407Z,12.39
2018-10-21T14:45:59.917Z,12.27
2018-10-21T14:48:26.071Z,12.29
2018-10-21T14:50:52.386Z,12.25
2018-10-21T14:53:18.725Z,12.19
2018-10-21T14:55:45.111Z,12.22
2018-10-21T14:58:11.441Z,12.22
2018-10-21T15:00:37.899Z,12.24
2018-10-21T15:03:04.177Z,12.30
2018-10-21T15:05:30.496Z,12.21
2018-10-21T15:07:56.798Z,12.12
2018-10-21T15:10:23.108Z,12.15
2018-10-21T15:12:49.449Z,12.16
2018-10-21T15:15:15.812Z,12.16
2018-10-21T15:17:42.126Z,12.18
2018-10-21T15:20:08.512Z,12.16
2018-10-21T15:22:34.844Z,12.12
2018-10-21T15:25:01.186Z,12.07
2018-10-21T15:27:27.518Z,12.06
2018-10-21T15:29:53.899Z,12.03
2018-10-21T15:32:21.541Z,11.96
2018-10-21T15:34:46.676Z,11.93
2018-10-21T15:37:12.965Z,11.86
2018-10-21T15:39:39.338Z,11.83
2018-10-21T15:42:05.644Z,11.84
2018-10-21T15:44:31.971Z,11.76
2018-10-21T15:46:58.289Z,11.73
2018-10-21T15:49:24.615Z,11.72
2018-10-21T15:51:50.992Z,11.66
2018-10-21T15:54:17.274Z,11.66
2018-10-21T15:56:43.605Z,11.56
2018-10-21T15:59:09.941Z,11.51
2018-10-21T16:01:36.268Z,11.43
2018-10-21T16:04:02.657Z,11.43
2018-10-21T16:06:28.911Z,11.41
2018-10-21T16:08:55.252Z,11.36
2018-10-21T16:11:21.579Z,11.38
2018-10-21T16:13:47.962Z,11.39
2018-10-21T16:16:14.286Z,11.40
2018-10-21T16:18:40.585Z,11.36
2018-10-21T16:21:06.907Z,11.25
2018-10-21T16:23:33.237Z,11.23
2018-10-21T16:25:59.648Z,11.22
2018-10-21T16:28:25.981Z,11.14
2018-10-21T16:30:52.277Z,11.12
2018-10-21T16:33:20.567Z,11.05
2018-10-21T16:35:44.934Z,11.02
2018-10-21T16:38:11.306Z,10.98
2018-10-21T16:40:37.594Z,10.95
2018-10-21T16:43:03.929Z,10.98
2018-10-21T16:45:30.259Z,10.96
2018-10-21T16:47:56.640Z,10.94
2018-10-21T16:50:22.946Z,10.89
2018-10-21T16:52:49.341Z,10.83
2018-10-21T16:55:15.698Z,10.84
2018-10-21T16:57:42.067Z,10.86
2018-10-21T17:00:08.423Z,10.86
2018-10-21T17:02:34.705Z,10.91
2018-10-21T17:05:01.030Z,10.91
2018-10-21T17:07:27.365Z,10.90
2018-10-21T17:09:54.052Z,10.93
2018-10-21T17:12:20.143Z,10.94
2018-10-21T17:14:46.472Z,10.94
2018-10-21T17:17:12.846Z,10.94
2018-10-21T17:19:39.114Z,10.89
2018-10-21T17:22:05.462Z,10.84
2018-10-21T17:24:31.822Z,10.85
2018-10-21T17:26:58.156Z,10.90
2018-10-21T17:29:24.493Z,10.95
2018-10-21T17:31:51.177Z,10.94
2018-10-21T17:34:17.582Z,10.93
2018-10-21T17:36:43.839Z,10.94
2018-10-21T17:39:10.159Z,10.92
2018-10-21T17:41:36.497Z,10.94
2018-10-21T17:44:02.823Z,10.93
2018-10-21T17:46:29.192Z,10.91
2018-10-21T17:48:56.505Z,10.86
2018-10-21T17:51:23.166Z,10.81
2018-10-21T17:53:49.490Z,10.76
2018-10-21T17:56:15.779Z,10.73
2018-10-21T17:58:42.211Z,10.74
2018-10-21T18:01:08.455Z,10.72
2018-10-21T18:03:34.773Z,10.75
2018-10-21T18:06:01.116Z,10.78
2018-10-21T18:08:27.447Z,10.78
2018-10-21T18:10:53.766Z,10.79
2018-10-21T18:13:20.083Z,10.77
2018-10-21T18:15:46.417Z,10.80
2018-10-21T18:18:12.779Z,10.85
2018-10-21T18:20:39.152Z,10.85
2018-10-21T18:23:05.424Z,10.83
2018-10-21T18:25:31.747Z,10.79
2018-10-21T18:27:58.114Z,10.83
2018-10-21T18:30:30.921Z,10.83
2018-10-21T18:32:50.995Z,10.82
2018-10-21T18:35:17.283Z,10.84
2018-10-21T18:37:43.621Z,10.84
2018-10-21T18:40:10.009Z,10.84
2018-10-21T18:42:36.386Z,10.86
2018-10-21T18:45:02.653Z,10.87
2018-10-21T18:47:28.974Z,10.91
2018-10-21T18:49:55.319Z,10.95
2018-10-21T18:52:21.675Z,10.93
2018-10-21T18:54:48.311Z,10.94
2018-10-21T18:57:14.604Z,10.97
2018-10-21T18:59:40.927Z,11.01
2018-10-21T19:02:07.260Z,11.02
2018-10-21T19:04:33.600Z,11.01
2018-10-21T19:06:59.937Z,11.02
2018-10-21T19:09:26.281Z,11.07
2018-10-21T19:11:52.593Z,11.09
2018-10-21T19:14:18.918Z,11.09
2018-10-21T19:16:45.243Z,11.11
2018-10-21T19:19:11.668Z,11.11
2018-10-21T19:21:37.899Z,11.10
2018-10-21T19:24:04.216Z,11.09
2018-10-21T19:26:30.568Z,11.13
2018-10-21T19:28:56.855Z,11.15
2018-10-21T19:31:23.197Z,11.16
2018-10-21T19:33:49.534Z,11.13
2018-10-21T19:36:15.862Z,11.13
2018-10-21T19:38:42.197Z,11.13
2018-10-21T19:41:08.507Z,11.10
2018-10-21T19:43:34.892Z,11.14
2018-10-21T19:46:01.183Z,11.13
2018-10-21T19:48:27.510Z,11.12
2018-10-21T19:50:53.873Z,11.16
2018-10-21T19:53:20.183Z,11.15
2018-10-21T19:55:46.533Z,11.13
2018-10-21T19:58:12.896Z,11.10
2018-10-21T20:00:39.175Z,11.10
2018-10-21T20:03:05.510Z,11.07
2018-10-21T20:05:31.831Z,11.04
2018-10-21T20:07:58.151Z,11.01
2018-10-21T20:10:24.478Z,11.01
2018-10-21T20:12:50.798Z,11.02
2018-10-21T20:15:17.125Z,11.10
2018-10-21T20:17:43.455Z,11.19
2018-10-21T20:20:10.065Z,11.22
2018-10-21T20:22:36.386Z,11.22
2018-10-21T20:25:02.778Z,11.14
2018-10-21T20:27:29.090Z,11.07
2018-10-21T20:29:55.424Z,11.03
2018-10-21T20:32:21.738Z,10.99
2018-10-21T20:34:48.062Z,11.07
2018-10-21T20:37:14.433Z,11.34
2018-10-21T20:39:40.802Z,11.39
2018-10-21T20:42:07.195Z,11.50
2018-10-21T20:44:33.530Z,11.78
2018-10-21T20:46:59.854Z,11.89
2018-10-21T20:49:26.179Z,11.76
2018-10-21T20:51:52.641Z,11.56
2018-10-21T20:54:19.019Z,11.42
2018-10-21T20:56:45.289Z,11.26
2018-10-21T20:59:11.625Z,11.17
2018-10-21T21:01:37.968Z,11.12
2018-10-21T21:04:04.327Z,11.10
2018-10-21T21:06:30.627Z,11.14
2018-10-21T21:08:56.958Z,11.13
2018-10-21T21:11:23.331Z,11.07
2018-10-21T21:13:49.669Z,11.08
2018-10-21T21:16:16.067Z,11.02
2018-10-21T21:18:42.314Z,10.98
2018-10-21T21:21:08.651Z,10.92
2018-10-21T21:23:34.974Z,10.91
2018-10-21T21:26:01.343Z,10.90
2018-10-21T21:28:27.671Z,10.88
2018-10-21T21:30:53.997Z,10.91
2018-10-21T21:33:20.310Z,10.99
2018-10-21T21:35:46.657Z,10.89
2018-10-21T21:38:12.988Z,10.93
2018-10-21T21:40:39.322Z,11.03
2018-10-21T21:43:05.646Z,11.07
2018-10-21T21:45:31.963Z,11.06
2018-10-21T21:47:58.318Z,11.12
2018-10-21T21:50:24.628Z,11.28
2018-10-21T21:52:50.961Z,11.37
2018-10-21T21:55:17.270Z,11.32
2018-10-21T21:57:43.589Z,11.26
2018-10-21T22:00:10.015Z,11.16
2018-10-21T22:02:36.277Z,11.19
2018-10-21T22:05:02.666Z,11.33
2018-10-21T22:07:28.970Z,11.34
2018-10-21T22:09:55.300Z,11.23
2018-10-21T22:12:21.808Z,11.25
2018-10-21T22:14:47.959Z,11.14
2018-10-21T22:17:14.303Z,11.14
2018-10-21T22:19:40.604Z,11.19
2018-10-21T22:22:06.990Z,11.19
2018-10-21T22:24:33.257Z,11.08
2018-10-21T22:26:59.560Z,11.29
2018-10-21T22:29:25.868Z,11.18
2018-10-21T22:31:52.178Z,11.18
2018-10-21T22:34:18.515Z,11.38
2018-10-21T22:36:44.838Z,11.60
2018-10-21T22:39:11.107Z,11.64
2018-10-21T22:41:37.505Z,11.53
2018-10-21T22:44:03.831Z,11.71
2018-10-21T22:46:30.177Z,11.84
2018-10-21T22:48:56.446Z,11.76
2018-10-21T22:51:22.762Z,11.76
2018-10-21T22:53:49.060Z,11.91
2018-10-21T22:56:15.398Z,11.98
2018-10-21T22:58:41.742Z,11.68
2018-10-21T23:01:08.109Z,11.70
2018-10-21T23:03:34.406Z,11.53
2018-10-21T23:06:00.744Z,11.49
2018-10-21T23:08:27.078Z,11.35
2018-10-21T23:10:53.405Z,11.25
2018-10-21T23:13:19.780Z,11.34
2018-10-21T23:15:46.101Z,11.70
2018-10-21T23:18:12.469Z,11.65
2018-10-21T23:20:38.739Z,11.51
2018-10-21T23:23:05.042Z,11.47
2018-10-21T23:25:31.348Z,11.25
2018-10-21T23:27:57.671Z,11.16
2018-10-21T23:30:23.999Z,11.21
2018-10-21T23:32:50.336Z,11.26
2018-10-21T23:35:16.680Z,11.22
2018-10-21T23:37:43.011Z,11.06
2018-10-21T23:40:09.402Z,11.08
2018-10-21T23:42:35.705Z,11.09
2018-10-21T23:45:02.070Z,10.95
2018-10-21T23:47:28.362Z,10.86
2018-10-21T23:49:54.687Z,10.78
2018-10-21T23:52:21.071Z,10.71
2018-10-21T23:54:47.311Z,10.76
2018-10-21T23:57:13.648Z,10.87
2018-10-21T23:59:39.985Z,10.97
